Indianapolis, Indiana
Traffic Map
Current Weather Conditions
Indianapolis, Indiana
Overcast
Overcast
46°
Feels Like: 39°
Wind Chill: 39° Ceiling: 1200
Heat Index: 46° Visibility: 10mi
Dew Point: 42° Wind: 16mph
Humidity: 86% Direction: 260° (W)
Pressure: 29.93in Gusts: 0mph
Raw Report DataKIND 171654Z 26014KT 10SM OVC012 08/06 A2993 RMK AO2 DZB26E49 SLP135 P0000 T00780056
Traffic Incident Summary
Active as of:
Severity:
Category:
InformationThere was an issue retrieving the traffic information for this location. Please try a different location or try again shortly.
Advertisements
Track Severe Weather on mobile